Авиационная погода в Ивало

Регион: 
Погода METAR: 
EFIV 282220Z AUTO 22007KT CAVOK 21/09 Q1023
Время наблюдения
2022-06-28T22:20:00Z
Температура C
21.0
Точка росы
9.0
Направление ветра
220
Скорость ветра (узлы)
7
Метео видимость
6.21
Облачность
CAVOK
Нижняя граница облачности (футы)
Явления погоды
Условия полета
VFR